createdAt,value
2023-04-18T00:01:39.165Z,8.65
2023-04-18T00:05:40.732Z,8.66
2023-04-18T00:09:42.806Z,8.65
2023-04-18T00:13:47.162Z,8.67
2023-04-18T00:17:48.793Z,8.71
2023-04-18T00:21:53.057Z,8.73
2023-04-18T00:25:54.751Z,8.76
2023-04-18T00:29:56.354Z,8.78
2023-04-18T00:33:57.917Z,8.80
2023-04-18T00:37:59.354Z,8.83
2023-04-18T00:42:01.790Z,8.85
2023-04-18T00:46:03.579Z,8.86
2023-04-18T00:50:06.221Z,8.85
2023-04-18T00:54:08.408Z,8.85
2023-04-18T00:58:10.449Z,8.84
2023-04-18T01:02:12.277Z,8.81
2023-04-18T01:06:15.378Z,8.82
2023-04-18T01:10:16.899Z,8.88
2023-04-18T01:14:20.067Z,8.92
2023-04-18T01:18:22.498Z,8.91
2023-04-18T01:22:24.284Z,8.91
2023-04-18T01:26:26.253Z,8.92
2023-04-18T01:30:27.956Z,8.91
2023-04-18T01:34:29.484Z,8.84
2023-04-18T01:38:31.019Z,8.87
2023-04-18T01:42:32.671Z,8.83
2023-04-18T01:46:34.323Z,8.78
2023-04-18T01:50:36.300Z,8.80
2023-04-18T01:54:37.909Z,8.78
2023-04-18T01:58:41.425Z,8.80
2023-04-18T02:02:43.370Z,8.83
2023-04-18T02:06:45.236Z,8.79
2023-04-18T02:10:46.781Z,8.74
2023-04-18T02:14:52.507Z,8.68
2023-04-18T02:18:54.276Z,8.64
2023-04-18T02:22:55.801Z,8.62
2023-04-18T02:26:57.297Z,8.60
2023-04-18T02:31:01.315Z,8.58
2023-04-18T02:35:02.793Z,8.54
2023-04-18T02:39:04.485Z,8.48
2023-04-18T02:43:06.294Z,8.42
2023-04-18T02:47:08.057Z,8.46
2023-04-18T02:51:13.646Z,8.46
2023-04-18T02:55:15.350Z,8.46
2023-04-18T02:59:18.820Z,8.47
2023-04-18T03:03:43.494Z,8.49
2023-04-18T03:08:03.717Z,8.43
2023-04-18T03:12:06.275Z,8.39
2023-04-18T03:16:09.853Z,8.35
2023-04-18T03:20:12.641Z,8.33
2023-04-18T03:24:15.227Z,8.33
2023-04-18T03:28:19.924Z,8.31
2023-04-18T03:32:22.253Z,8.35
2023-04-18T03:36:25.318Z,8.32
2023-04-18T03:40:28.786Z,8.28
2023-04-18T03:44:35.446Z,8.23
2023-04-18T03:48:38.286Z,8.21
2023-04-18T03:52:44.076Z,8.21
2023-04-18T03:56:46.736Z,8.20
2023-04-18T04:00:52.442Z,8.15
2023-04-18T04:04:54.015Z,8.14
2023-04-18T04:08:55.873Z,8.09
2023-04-18T04:12:59.955Z,8.02
2023-04-18T04:17:02.334Z,8.00
2023-04-18T04:21:06.651Z,7.99
2023-04-18T04:25:24.189Z,7.99
2023-04-18T04:29:29.116Z,7.98
2023-04-18T04:33:33.232Z,7.96
2023-04-18T04:37:41.265Z,7.90
2023-04-18T04:42:30.183Z,7.94
2023-04-18T04:47:07.691Z,7.99
2023-04-18T04:51:11.727Z,7.95
2023-04-18T04:55:13.269Z,7.97
2023-04-18T04:59:16.668Z,7.99
2023-04-18T05:08:51.534Z,7.99
2023-04-18T05:12:53.003Z,7.96
2023-04-18T05:16:56.138Z,8.00
2023-04-18T05:21:48.347Z,8.01
2023-04-18T05:26:40.109Z,7.95
2023-04-18T05:30:41.644Z,7.91
2023-04-18T05:35:17.107Z,7.95
2023-04-18T05:39:18.735Z,7.99
2023-04-18T05:43:20.446Z,7.98
2023-04-18T05:47:24.143Z,7.95
2023-04-18T05:51:26.758Z,7.92
2023-04-18T05:55:28.383Z,7.92
2023-04-18T05:59:29.874Z,8.05
2023-04-18T06:03:31.630Z,8.03
2023-04-18T06:07:34.282Z,8.09
2023-04-18T06:11:35.905Z,8.20
2023-04-18T06:15:37.511Z,8.17
2023-04-18T06:19:42.304Z,8.26
2023-04-18T06:23:43.951Z,8.27
2023-04-18T06:27:45.464Z,8.32
2023-04-18T06:31:48.215Z,8.20
2023-04-18T06:35:49.975Z,8.19
2023-04-18T06:39:51.667Z,8.24
2023-04-18T06:44:03.428Z,8.29
2023-04-18T06:48:07.655Z,8.40
2023-04-18T06:52:09.302Z,8.49
2023-04-18T06:56:10.952Z,8.45
2023-04-18T07:00:13.270Z,8.26
2023-04-18T07:04:15.635Z,8.24
2023-04-18T07:08:17.757Z,8.32
2023-04-18T07:12:19.279Z,8.35
2023-04-18T07:16:21.084Z,8.33
2023-04-18T07:20:22.764Z,8.28
2023-04-18T07:24:24.582Z,8.31
2023-04-18T07:28:26.214Z,8.28
2023-04-18T07:32:28.059Z,8.34
2023-04-18T07:36:29.869Z,8.37
2023-04-18T07:40:31.540Z,8.40
2023-04-18T07:44:35.232Z,8.61
2023-04-18T07:48:37.001Z,8.74
2023-04-18T07:52:39.547Z,8.74
2023-04-18T07:56:41.284Z,8.75
2023-04-18T08:00:44.622Z,8.87
2023-04-18T08:04:47.119Z,9.05
2023-04-18T08:08:48.961Z,9.32
2023-04-18T08:12:50.734Z,9.53
2023-04-18T08:16:52.396Z,9.57
2023-04-18T08:20:53.913Z,9.63
2023-04-18T08:25:04.232Z,9.82
2023-04-18T08:29:07.917Z,10.03
2023-04-18T08:33:09.713Z,10.21
2023-04-18T08:37:11.390Z,10.13
2023-04-18T08:41:13.856Z,10.14
2023-04-18T08:45:15.579Z,10.08
2023-04-18T08:49:17.633Z,10.09
2023-04-18T08:53:19.390Z,10.31
2023-04-18T08:57:27.016Z,10.47
2023-04-18T09:01:52.827Z,10.80
2023-04-18T09:06:08.376Z,10.94
2023-04-18T09:10:10.535Z,10.90
2023-04-18T09:14:25.814Z,10.62
2023-04-18T09:18:27.292Z,10.41
2023-04-18T09:22:50.378Z,10.12
2023-04-18T09:26:56.787Z,9.92
2023-04-18T09:31:13.167Z,9.80
2023-04-18T09:35:24.805Z,9.68
2023-04-18T09:39:28.360Z,9.59
2023-04-18T09:43:29.942Z,9.51
2023-04-18T09:47:34.674Z,9.44
2023-04-18T09:51:36.721Z,9.34
2023-04-18T09:55:39.912Z,9.32
2023-04-18T09:59:54.940Z,9.32
2023-04-18T10:03:57.605Z,9.37
2023-04-18T10:07:59.549Z,9.40
2023-04-18T10:12:02.542Z,9.39
2023-04-18T10:16:04.684Z,9.38
2023-04-18T10:20:08.245Z,9.36
2023-04-18T10:24:52.905Z,9.42
2023-04-18T10:28:54.747Z,9.41
2023-04-18T10:32:56.939Z,9.47
2023-04-18T10:37:05.554Z,9.39
2023-04-18T10:41:17.589Z,9.54
2023-04-18T10:45:23.231Z,9.60
2023-04-18T10:49:32.028Z,9.61
2023-04-18T10:53:34.698Z,9.49
2023-04-18T10:57:48.514Z,9.62
2023-04-18T11:01:55.751Z,9.59
2023-04-18T11:06:03.797Z,9.57
2023-04-18T11:10:07.370Z,9.46
2023-04-18T11:14:09.133Z,9.38
2023-04-18T11:18:11.032Z,9.39
2023-04-18T11:22:13.322Z,9.28
2023-04-18T11:26:17.450Z,9.30
2023-04-18T11:30:19.301Z,9.47
2023-04-18T11:34:21.601Z,9.66
2023-04-18T11:38:28.769Z,9.66
2023-04-18T11:42:35.169Z,9.66
2023-04-18T11:46:39.946Z,9.62
2023-04-18T11:50:41.464Z,9.67
2023-04-18T11:54:44.824Z,9.78
2023-04-18T11:58:46.575Z,9.88
2023-04-18T12:02:51.059Z,9.92
2023-04-18T12:06:53.859Z,9.97
2023-04-18T12:10:55.705Z,9.98
2023-04-18T12:15:08.300Z,10.06
2023-04-18T12:19:11.220Z,10.08
2023-04-18T12:23:35.749Z,10.26
2023-04-18T12:27:53.004Z,10.35
2023-04-18T12:31:54.781Z,10.26
2023-04-18T12:35:56.564Z,10.17
2023-04-18T12:39:58.204Z,10.26
2023-04-18T12:44:00.305Z,10.22
2023-04-18T12:48:01.977Z,10.27
2023-04-18T12:52:03.579Z,10.26
2023-04-18T12:56:05.641Z,10.24
2023-04-18T13:00:10.957Z,10.17
2023-04-18T13:04:13.374Z,10.02
2023-04-18T13:08:17.751Z,10.03
2023-04-18T13:12:19.580Z,10.17
2023-04-18T13:16:21.283Z,10.24
2023-04-18T13:20:22.871Z,10.25
2023-04-18T13:24:24.561Z,10.31
2023-04-18T13:28:26.685Z,10.34
2023-04-18T13:32:28.454Z,10.38
2023-04-18T13:36:31.590Z,10.48
2023-04-18T13:40:33.656Z,10.46
2023-04-18T13:44:36.576Z,10.41
2023-04-18T13:48:38.149Z,10.27
2023-04-18T13:52:39.707Z,10.24
2023-04-18T13:56:41.603Z,10.28
2023-04-18T14:00:43.467Z,10.27
2023-04-18T14:04:45.413Z,10.27
2023-04-18T14:08:49.451Z,10.32
2023-04-18T14:12:51.396Z,10.33
2023-04-18T14:16:53.895Z,10.42
2023-04-18T14:20:55.579Z,10.46
2023-04-18T14:24:57.374Z,10.51
2023-04-18T14:28:59.241Z,10.45
2023-04-18T14:33:20.949Z,10.49
2023-04-18T14:37:22.523Z,10.57
2023-04-18T14:41:24.125Z,10.60
2023-04-18T14:45:26.284Z,10.64
2023-04-18T14:49:29.446Z,10.71
2023-04-18T14:53:31.053Z,10.67
2023-04-18T15:03:11.369Z,10.61
2023-04-18T15:07:15.535Z,10.62
2023-04-18T15:11:17.148Z,10.57
2023-04-18T15:15:19.519Z,10.57
2023-04-18T15:20:13.236Z,10.55
2023-04-18T15:25:07.237Z,10.66
2023-04-18T15:29:39.886Z,10.65
2023-04-18T15:33:41.751Z,10.59
2023-04-18T15:37:43.566Z,10.64
2023-04-18T15:42:34.801Z,10.55
2023-04-18T15:46:37.722Z,10.61
2023-04-18T15:51:16.494Z,10.55
2023-04-18T15:56:08.394Z,10.56
2023-04-18T16:01:10.012Z,10.52
2023-04-18T16:05:17.361Z,10.49
2023-04-18T16:09:46.656Z,10.43
2023-04-18T16:14:38.829Z,10.44
2023-04-18T16:24:22.056Z,10.45
2023-04-18T16:28:24.871Z,10.47
2023-04-18T16:32:26.518Z,10.48
2023-04-18T16:37:03.560Z,10.44
2023-04-18T16:41:13.381Z,10.46
2023-04-18T16:45:36.313Z,10.45
2023-04-18T16:50:03.199Z,10.38
2023-04-18T16:54:49.750Z,10.35
2023-04-18T16:59:09.572Z,10.42
2023-04-18T17:03:38.589Z,10.40
2023-04-18T17:08:28.003Z,10.41
2023-04-18T17:12:33.782Z,10.36
2023-04-18T17:17:19.279Z,10.34
2023-04-18T17:21:51.069Z,10.33
2023-04-18T17:25:52.886Z,10.33
2023-04-18T17:30:15.596Z,10.30
2023-04-18T17:35:07.084Z,10.30
2023-04-18T17:39:09.774Z,10.29
2023-04-18T17:43:52.521Z,10.24
2023-04-18T17:48:19.982Z,10.24
2023-04-18T17:52:22.013Z,10.25
2023-04-18T17:56:25.873Z,10.23
2023-04-18T18:01:01.477Z,10.20
2023-04-18T18:05:55.083Z,10.18
2023-04-18T18:10:25.177Z,10.17
2023-04-18T18:14:45.143Z,10.15
2023-04-18T18:18:47.022Z,10.13
2023-04-18T18:23:23.161Z,10.11
2023-04-18T18:28:14.917Z,10.07
2023-04-18T18:38:24.203Z,10.11
2023-04-18T18:42:26.413Z,10.13
2023-04-18T18:47:18.167Z,10.12
2023-04-18T18:52:12.041Z,10.14
2023-04-18T18:57:26.922Z,10.13
2023-04-18T19:07:44.855Z,10.06
2023-04-18T19:12:36.706Z,10.05
2023-04-18T19:17:29.242Z,10.07
2023-04-18T19:21:56.332Z,10.07
2023-04-18T19:26:51.947Z,10.06
2023-04-18T19:30:53.677Z,10.08
2023-04-18T19:34:56.598Z,10.05
2023-04-18T19:38:58.389Z,10.06
2023-04-18T19:43:41.562Z,10.06
2023-04-18T19:47:44.849Z,10.08
2023-04-18T19:52:16.953Z,10.08
2023-04-18T19:56:19.227Z,10.12
2023-04-18T20:00:23.684Z,10.16
2023-04-18T20:04:25.839Z,10.15
2023-04-18T20:08:29.862Z,10.17
2023-04-18T20:12:31.792Z,10.17
2023-04-18T20:16:34.629Z,10.18
2023-04-18T20:20:36.856Z,10.17
2023-04-18T20:24:58.749Z,10.15
2023-04-18T20:29:20.623Z,10.15
2023-04-18T20:33:42.098Z,10.12
2023-04-18T20:37:44.530Z,10.17
2023-04-18T20:42:12.685Z,10.18
2023-04-18T20:46:34.469Z,10.17
2023-04-18T20:51:00.344Z,10.19
2023-04-18T20:56:14.320Z,10.18
2023-04-18T21:01:03.953Z,10.19
2023-04-18T21:05:30.506Z,10.15
2023-04-18T21:09:52.877Z,10.17
2023-04-18T21:13:59.629Z,10.17
2023-04-18T21:18:37.354Z,10.19
2023-04-18T21:23:27.420Z,10.17
2023-04-18T21:27:53.650Z,10.17
2023-04-18T21:32:20.303Z,10.15
2023-04-18T21:36:56.220Z,10.18
2023-04-18T21:41:03.968Z,10.17
2023-04-18T21:45:56.127Z,10.12
2023-04-18T21:50:36.353Z,10.09
2023-04-18T21:55:18.115Z,10.06
2023-04-18T21:59:40.303Z,10.11
2023-04-18T22:03:45.107Z,10.14
2023-04-18T22:07:58.399Z,10.13
2023-04-18T22:12:09.122Z,10.11
2023-04-18T22:16:34.862Z,10.06
2023-04-18T22:20:56.816Z,9.98
2023-04-18T22:25:24.864Z,9.97
2023-04-18T22:30:14.825Z,9.94
2023-04-18T22:34:36.454Z,9.92
2023-04-18T22:38:59.043Z,9.90
2023-04-18T22:43:54.274Z,9.81
2023-04-18T22:48:46.182Z,9.76
2023-04-18T22:52:48.075Z,9.72
2023-04-18T22:56:58.376Z,9.68
2023-04-18T23:01:01.949Z,9.66
2023-04-18T23:05:37.826Z,9.66
2023-04-18T23:14:57.598Z,9.61
2023-04-18T23:24:28.381Z,9.70
2023-04-18T23:29:37.586Z,9.70
2023-04-18T23:34:55.777Z,9.68
2023-04-18T23:38:57.509Z,9.73
2023-04-18T23:42:59.101Z,9.74
2023-04-18T23:47:00.788Z,9.70
2023-04-18T23:51:37.523Z,9.60
2023-04-18T23:56:28.593Z,9.51
